createdAt,value
2023-05-02T00:00:11.511Z,13.06
2023-05-02T00:01:11.493Z,13.17
2023-05-02T00:02:11.541Z,13.03
2023-05-02T00:03:11.512Z,13.17
2023-05-02T00:04:11.584Z,13.03
2023-05-02T00:05:11.558Z,13.12
2023-05-02T00:06:11.476Z,13.07
2023-05-02T00:07:11.444Z,13.02
2023-05-02T00:08:11.431Z,12.99
2023-05-02T00:09:11.411Z,13.04
2023-05-02T00:10:11.411Z,13.11
2023-05-02T00:11:11.392Z,13.11
2023-05-02T00:12:11.382Z,13.11
2023-05-02T00:13:11.373Z,13.06
2023-05-02T00:14:11.343Z,13.07
2023-05-02T00:15:11.377Z,13.04
2023-05-02T00:16:11.363Z,12.97
2023-05-02T00:17:11.549Z,13.09
2023-05-02T00:18:11.376Z,13.03
2023-05-02T00:19:11.328Z,12.99
2023-05-02T00:20:11.369Z,13.06
2023-05-02T00:21:11.293Z,12.99
2023-05-02T00:22:11.293Z,13.11
2023-05-02T00:23:11.272Z,12.96
2023-05-02T00:24:11.289Z,12.92
2023-05-02T00:25:11.265Z,12.82
2023-05-02T00:26:11.242Z,12.74
2023-05-02T00:27:11.226Z,12.69
2023-05-02T00:28:11.255Z,12.75
2023-05-02T00:29:11.230Z,12.71
2023-05-02T00:30:11.241Z,12.64
2023-05-02T00:31:11.229Z,12.66
2023-05-02T00:32:11.178Z,12.63
2023-05-02T00:33:11.311Z,12.70
2023-05-02T00:34:11.197Z,12.67
2023-05-02T00:35:11.184Z,12.70
2023-05-02T00:36:11.142Z,12.62
2023-05-02T00:37:11.136Z,12.66
2023-05-02T00:38:11.122Z,12.57
2023-05-02T00:39:11.112Z,12.51
2023-05-02T00:40:11.127Z,12.46
2023-05-02T00:41:11.100Z,12.49
2023-05-02T00:42:11.094Z,12.45
2023-05-02T00:43:11.093Z,12.39
2023-05-02T00:44:11.063Z,12.52
2023-05-02T00:45:11.074Z,12.46
2023-05-02T00:46:11.083Z,12.56
2023-05-02T00:47:11.043Z,12.51
2023-05-02T00:48:11.158Z,12.39
2023-05-02T00:49:11.013Z,12.38
2023-05-02T00:50:11.037Z,12.23
2023-05-02T00:51:11.006Z,12.26
2023-05-02T00:52:10.992Z,12.31
2023-05-02T00:53:11.043Z,12.30
2023-05-02T00:54:10.986Z,12.34
2023-05-02T00:55:10.987Z,12.34
2023-05-02T00:56:10.944Z,12.30
2023-05-02T00:57:10.936Z,12.41
2023-05-02T00:58:10.953Z,12.37
2023-05-02T00:59:10.918Z,12.38
2023-05-02T01:00:10.947Z,12.34
2023-05-02T01:01:10.930Z,12.33
2023-05-02T01:02:10.918Z,12.29
2023-05-02T01:03:10.910Z,12.26
2023-05-02T01:04:10.937Z,12.24
2023-05-02T01:05:10.900Z,12.12
2023-05-02T01:06:10.869Z,12.15
2023-05-02T01:07:10.847Z,12.16
2023-05-02T01:08:10.832Z,12.21
2023-05-02T01:09:10.821Z,12.12
2023-05-02T01:10:10.845Z,12.15
2023-05-02T01:11:10.789Z,12.13
2023-05-02T01:12:10.799Z,12.13
2023-05-02T01:13:10.799Z,12.30
2023-05-02T01:14:10.780Z,12.20
2023-05-02T01:15:10.776Z,12.01
2023-05-02T01:16:10.800Z,11.89
2023-05-02T01:17:10.730Z,11.90
2023-05-02T01:18:10.748Z,11.85
2023-05-02T01:19:10.715Z,11.90
2023-05-02T01:20:10.729Z,11.83
2023-05-02T01:21:10.702Z,11.89
2023-05-02T01:22:10.683Z,11.89
2023-05-02T01:23:10.680Z,11.90
2023-05-02T01:24:10.683Z,12.02
2023-05-02T01:25:10.711Z,11.99
2023-05-02T01:26:10.667Z,12.06
2023-05-02T01:27:10.648Z,12.06
2023-05-02T01:28:10.626Z,12.06
2023-05-02T01:29:10.614Z,12.12
2023-05-02T01:30:10.644Z,12.12
2023-05-02T01:31:10.653Z,12.19
2023-05-02T01:32:10.599Z,12.21
2023-05-02T01:33:10.611Z,12.21
2023-05-02T01:34:10.560Z,12.23
2023-05-02T01:35:10.601Z,12.19
2023-05-02T01:36:10.556Z,12.27
2023-05-02T01:37:10.527Z,12.24
2023-05-02T01:38:10.521Z,12.26
2023-05-02T01:39:10.529Z,12.29
2023-05-02T01:40:10.528Z,12.41
2023-05-02T01:41:10.595Z,12.37
2023-05-02T01:42:10.494Z,12.38
2023-05-02T01:43:10.499Z,12.29
2023-05-02T01:44:10.504Z,12.34
2023-05-02T01:45:10.499Z,12.34
2023-05-02T01:46:10.475Z,12.44
2023-05-02T01:47:10.497Z,12.41
2023-05-02T01:48:10.481Z,12.41
2023-05-02T01:49:10.432Z,12.42
2023-05-02T01:50:10.477Z,12.49
2023-05-02T01:51:10.419Z,12.48
2023-05-02T01:52:10.392Z,12.34
2023-05-02T01:53:10.383Z,12.46
2023-05-02T01:54:10.374Z,12.48
2023-05-02T01:55:10.397Z,12.49
2023-05-02T01:56:10.352Z,12.48
2023-05-02T01:57:10.344Z,12.30
2023-05-02T01:58:10.345Z,12.44
2023-05-02T01:59:10.335Z,12.44
2023-05-02T02:00:10.353Z,12.44
2023-05-02T02:01:10.374Z,12.37
2023-05-02T02:02:10.307Z,12.31
2023-05-02T02:03:11.311Z,12.44
2023-05-02T02:04:10.335Z,12.45
2023-05-02T02:05:10.305Z,12.45
2023-05-02T02:06:10.342Z,12.45
2023-05-02T02:07:10.268Z,12.45
2023-05-02T02:08:10.248Z,12.44
2023-05-02T02:09:10.224Z,12.37
2023-05-02T02:10:10.277Z,12.45
2023-05-02T02:11:10.208Z,12.39
2023-05-02T02:12:10.212Z,12.46
2023-05-02T02:13:10.211Z,12.52
2023-05-02T02:14:10.187Z,12.38
2023-05-02T02:15:10.184Z,12.51
2023-05-02T02:16:10.207Z,12.51
2023-05-02T02:17:10.198Z,12.52
2023-05-02T02:18:10.215Z,12.59
2023-05-02T02:19:10.135Z,12.60
2023-05-02T02:20:10.159Z,12.57
2023-05-02T02:21:10.102Z,12.57
2023-05-02T02:22:10.116Z,12.57
2023-05-02T02:23:10.106Z,12.51
2023-05-02T02:24:10.080Z,12.60
2023-05-02T02:25:10.116Z,12.51
2023-05-02T02:26:10.089Z,12.41
2023-05-02T02:27:10.071Z,12.41
2023-05-02T02:28:10.070Z,12.54
2023-05-02T02:29:10.036Z,12.41
2023-05-02T02:30:10.050Z,12.41
2023-05-02T02:31:10.065Z,12.33
2023-05-02T02:32:10.013Z,12.30
2023-05-02T02:33:10.050Z,12.33
2023-05-02T02:34:09.985Z,12.34
2023-05-02T02:35:10.003Z,12.31
2023-05-02T02:36:09.965Z,12.13
2023-05-02T02:37:09.958Z,12.24
2023-05-02T02:38:10.027Z,12.09
2023-05-02T02:39:09.932Z,12.08
2023-05-02T02:40:09.952Z,12.04
2023-05-02T02:41:09.912Z,12.09
2023-05-02T02:42:09.903Z,12.11
2023-05-02T02:43:09.921Z,11.97
2023-05-02T02:44:11.608Z,11.99
2023-05-02T02:45:09.878Z,12.01
2023-05-02T02:46:09.870Z,11.87
2023-05-02T02:47:09.841Z,11.94
2023-05-02T02:48:09.907Z,12.08
2023-05-02T02:49:09.831Z,12.09
2023-05-02T02:50:10.010Z,12.09
2023-05-02T02:51:09.817Z,11.93
2023-05-02T02:52:09.793Z,11.97
2023-05-02T02:53:09.800Z,11.86
2023-05-02T02:54:23.028Z,11.75
2023-05-02T02:55:11.813Z,11.89
2023-05-02T02:56:09.763Z,11.83
2023-05-02T02:57:09.749Z,12.06
2023-05-02T02:58:09.732Z,11.99
2023-05-02T02:59:09.725Z,11.97
2023-05-02T03:00:09.784Z,11.85
2023-05-02T03:01:09.738Z,11.93
2023-05-02T03:02:09.809Z,11.89
2023-05-02T03:03:09.868Z,11.97
2023-05-02T03:04:09.693Z,11.90
2023-05-02T03:05:09.690Z,11.93
2023-05-02T03:06:09.705Z,11.89
2023-05-02T03:07:09.663Z,11.89
2023-05-02T03:08:09.630Z,11.89
2023-05-02T03:09:09.663Z,11.85
2023-05-02T03:10:09.643Z,11.94
2023-05-02T03:11:09.634Z,11.87
2023-05-02T03:12:09.611Z,11.94
2023-05-02T03:13:09.602Z,11.83
2023-05-02T03:14:09.573Z,11.86
2023-05-02T03:15:09.578Z,11.83
2023-05-02T03:16:10.746Z,11.94
2023-05-02T03:17:09.544Z,11.97
2023-05-02T03:18:09.596Z,11.87
2023-05-02T03:19:09.569Z,11.90
2023-05-02T03:20:09.549Z,11.90
2023-05-02T03:21:09.570Z,11.87
2023-05-02T03:22:09.520Z,11.86
2023-05-02T03:23:09.492Z,11.97
2023-05-02T03:24:09.512Z,11.93
2023-05-02T03:25:09.491Z,11.94
2023-05-02T03:26:09.503Z,11.87
2023-05-02T03:27:09.460Z,11.87
2023-05-02T03:28:09.461Z,11.82
2023-05-02T03:29:09.448Z,11.74
2023-05-02T03:30:09.462Z,11.75
2023-05-02T03:31:09.459Z,11.78
2023-05-02T03:32:09.512Z,11.86
2023-05-02T03:33:09.523Z,11.82
2023-05-02T03:34:09.408Z,11.71
2023-05-02T03:35:09.392Z,11.64
2023-05-02T03:36:09.375Z,11.64
2023-05-02T03:37:09.369Z,11.61
2023-05-02T03:38:09.345Z,11.62
2023-05-02T03:39:09.350Z,11.64
2023-05-02T03:40:09.323Z,11.64
2023-05-02T03:41:09.355Z,11.57
2023-05-02T03:42:09.321Z,11.65
2023-05-02T03:43:09.333Z,11.62
2023-05-02T03:44:09.297Z,11.74
2023-05-02T03:45:09.281Z,11.64
2023-05-02T03:46:09.328Z,11.64
2023-05-02T03:47:09.411Z,11.57
2023-05-02T03:48:09.296Z,11.71
2023-05-02T03:49:09.262Z,11.61
2023-05-02T03:50:09.279Z,11.65
2023-05-02T03:51:09.262Z,11.64
2023-05-02T03:52:09.225Z,11.61
2023-05-02T03:53:09.211Z,11.61
2023-05-02T03:54:09.188Z,11.53
2023-05-02T03:55:09.203Z,11.54
2023-05-02T03:56:09.216Z,11.59
2023-05-02T03:57:09.187Z,11.62
2023-05-02T03:58:09.161Z,11.65
2023-05-02T03:59:10.204Z,11.57
2023-05-02T04:00:09.142Z,11.61
2023-05-02T04:01:09.173Z,11.65
2023-05-02T04:02:09.171Z,11.65
2023-05-02T04:03:09.191Z,11.62
2023-05-02T04:04:09.144Z,11.64
2023-05-02T04:05:09.097Z,11.65
2023-05-02T04:06:09.213Z,11.62
2023-05-02T04:07:10.067Z,11.68
2023-05-02T04:08:09.068Z,11.65
2023-05-02T04:09:09.056Z,11.53
2023-05-02T04:10:09.038Z,11.57
2023-05-02T04:11:09.044Z,11.59
2023-05-02T04:12:09.009Z,11.64
2023-05-02T04:13:40.923Z,11.53
2023-05-02T04:14:08.993Z,11.49
2023-05-02T04:15:08.971Z,11.59
2023-05-02T04:16:08.978Z,11.62
2023-05-02T04:17:08.978Z,11.62
2023-05-02T04:18:09.001Z,11.77
2023-05-02T04:19:08.933Z,11.70
2023-05-02T04:20:09.083Z,11.67
2023-05-02T04:21:08.947Z,11.57
2023-05-02T04:22:08.895Z,11.68
2023-05-02T04:23:08.893Z,11.68
2023-05-02T04:24:08.895Z,11.62
2023-05-02T04:25:08.871Z,11.57
2023-05-02T04:26:08.876Z,11.61
2023-05-02T04:27:08.857Z,11.57
2023-05-02T04:28:08.834Z,11.61
2023-05-02T04:29:08.839Z,11.56
2023-05-02T04:30:08.823Z,11.53
2023-05-02T04:31:08.906Z,11.54
2023-05-02T04:32:08.808Z,11.53
2023-05-02T04:33:08.861Z,11.56
2023-05-02T04:34:08.774Z,11.59
2023-05-02T04:35:08.767Z,11.53
2023-05-02T04:36:08.851Z,11.68
2023-05-02T04:37:08.745Z,11.61
2023-05-02T04:38:08.744Z,11.62
2023-05-02T04:39:08.725Z,11.57
2023-05-02T04:40:08.724Z,11.52
2023-05-02T04:41:09.676Z,11.56
2023-05-02T04:42:08.708Z,11.56
2023-05-02T04:43:08.689Z,11.50
2023-05-02T04:44:08.687Z,11.53
2023-05-02T04:45:08.664Z,11.57
2023-05-02T04:46:08.737Z,11.57
2023-05-02T04:47:08.641Z,11.53
2023-05-02T04:48:08.669Z,11.50
2023-05-02T04:49:08.628Z,11.46
2023-05-02T04:50:08.652Z,11.52
2023-05-02T04:51:08.625Z,11.49
2023-05-02T04:52:08.638Z,11.47
2023-05-02T04:53:08.591Z,11.61
2023-05-02T04:54:08.572Z,11.47
2023-05-02T04:55:08.574Z,11.54
2023-05-02T04:56:08.576Z,11.54
2023-05-02T04:57:08.541Z,11.57
2023-05-02T04:58:08.534Z,11.53
2023-05-02T04:59:08.532Z,11.59
2023-05-02T05:00:08.523Z,11.56
2023-05-02T05:01:08.553Z,11.59
2023-05-02T05:02:08.700Z,11.52
2023-05-02T05:03:08.523Z,11.68
2023-05-02T05:04:08.632Z,11.64
2023-05-02T05:05:08.515Z,11.62
2023-05-02T05:06:08.498Z,11.65
2023-05-02T05:07:08.622Z,11.67
2023-05-02T05:08:08.427Z,11.71
2023-05-02T05:09:08.420Z,11.68
2023-05-02T05:10:08.439Z,11.67
2023-05-02T05:11:08.408Z,11.74
2023-05-02T05:12:08.417Z,11.64
2023-05-02T05:13:08.404Z,11.70
2023-05-02T05:14:08.378Z,11.77
2023-05-02T05:15:08.403Z,11.70
2023-05-02T05:16:08.417Z,11.68
2023-05-02T05:17:08.386Z,11.72
2023-05-02T05:18:08.407Z,11.74
2023-05-02T05:19:08.352Z,11.75
2023-05-02T05:20:09.586Z,11.78
2023-05-02T05:21:08.327Z,11.78
2023-05-02T05:22:08.400Z,11.74
2023-05-02T05:23:08.280Z,11.83
2023-05-02T05:24:08.288Z,11.86
2023-05-02T05:25:08.477Z,11.78
2023-05-02T05:26:08.263Z,11.77
2023-05-02T05:27:08.301Z,11.83
2023-05-02T05:28:08.236Z,11.74
2023-05-02T05:29:08.280Z,11.75
2023-05-02T05:30:08.219Z,11.74
2023-05-02T05:31:08.219Z,11.68
2023-05-02T05:32:08.316Z,11.68
2023-05-02T05:33:08.323Z,11.65
2023-05-02T05:34:08.203Z,11.65
2023-05-02T05:35:08.165Z,11.64
2023-05-02T05:36:08.160Z,11.62
2023-05-02T05:37:08.205Z,11.52
2023-05-02T05:38:08.143Z,11.56
2023-05-02T05:39:08.128Z,11.68
2023-05-02T05:40:08.123Z,11.53
2023-05-02T05:41:08.110Z,11.57
2023-05-02T05:42:08.140Z,11.67
2023-05-02T05:43:08.081Z,11.65
2023-05-02T05:44:08.088Z,11.62
2023-05-02T05:45:08.096Z,11.65
2023-05-02T05:46:08.081Z,11.67
2023-05-02T05:47:08.178Z,11.64
2023-05-02T05:48:08.137Z,11.57
2023-05-02T05:49:08.035Z,11.59
2023-05-02T05:50:08.050Z,11.67
2023-05-02T05:51:08.027Z,11.62
2023-05-02T05:52:08.064Z,11.62
2023-05-02T05:53:08.005Z,11.61
2023-05-02T05:54:08.022Z,11.59
2023-05-02T05:55:07.981Z,11.59
2023-05-02T05:56:08.012Z,11.47
2023-05-02T05:57:08.012Z,11.52
2023-05-02T05:58:07.963Z,11.43
2023-05-02T05:59:07.949Z,11.44
2023-05-02T06:00:07.931Z,11.47
2023-05-02T06:01:07.907Z,11.53
2023-05-02T06:02:08.989Z,11.50
2023-05-02T06:03:09.930Z,11.65
2023-05-02T06:04:08.982Z,11.62
2023-05-02T06:05:07.914Z,11.64
2023-05-02T06:06:07.902Z,11.52
2023-05-02T06:07:07.892Z,11.61
2023-05-02T06:08:07.846Z,11.65
2023-05-02T06:09:07.835Z,11.54
2023-05-02T06:10:07.843Z,11.68
2023-05-02T06:11:07.824Z,11.71
2023-05-02T06:12:07.858Z,11.77
2023-05-02T06:13:07.799Z,11.68
2023-05-02T06:14:07.825Z,11.67
2023-05-02T06:15:07.788Z,11.64
2023-05-02T06:16:07.792Z,11.68
2023-05-02T06:17:07.808Z,11.56
2023-05-02T06:18:07.896Z,11.53
2023-05-02T06:19:07.771Z,11.52
2023-05-02T06:20:07.758Z,11.41
2023-05-02T06:21:07.745Z,11.38
2023-05-02T06:22:07.754Z,11.38
2023-05-02T06:23:07.696Z,11.46
2023-05-02T06:24:07.701Z,11.39
2023-05-02T06:25:07.661Z,11.35
2023-05-02T06:26:07.679Z,11.49
2023-05-02T06:27:07.715Z,11.47
2023-05-02T06:28:07.648Z,11.41
2023-05-02T06:29:07.654Z,11.43
2023-05-02T06:30:07.638Z,11.56
2023-05-02T06:31:07.806Z,11.46
2023-05-02T06:32:07.708Z,11.49
2023-05-02T06:33:07.716Z,11.35
2023-05-02T06:34:07.584Z,11.41
2023-05-02T06:35:08.085Z,11.44
2023-05-02T06:36:07.574Z,11.50
2023-05-02T06:37:07.574Z,11.46
2023-05-02T06:38:07.538Z,11.53
2023-05-02T06:39:07.532Z,11.47
2023-05-02T06:40:07.505Z,11.49
2023-05-02T06:41:07.501Z,11.50
2023-05-02T06:42:07.515Z,11.54
2023-05-02T06:43:07.497Z,11.52
2023-05-02T06:44:07.466Z,11.57
2023-05-02T06:45:07.457Z,11.52
2023-05-02T06:46:07.497Z,11.59
2023-05-02T06:47:07.541Z,11.57
2023-05-02T06:48:07.470Z,11.53
2023-05-02T06:49:07.415Z,11.41
2023-05-02T06:50:07.406Z,11.36
2023-05-02T06:51:07.391Z,11.31
2023-05-02T06:52:07.417Z,11.32
2023-05-02T06:53:07.396Z,11.24
2023-05-02T06:54:07.376Z,11.24
2023-05-02T06:55:07.360Z,11.21
2023-05-02T06:56:07.353Z,11.39
2023-05-02T06:57:07.543Z,11.32
2023-05-02T06:58:07.335Z,11.41
2023-05-02T06:59:07.322Z,11.43
2023-05-02T07:00:07.315Z,11.49
2023-05-02T07:01:07.390Z,11.52
2023-05-02T07:02:07.326Z,11.57
2023-05-02T07:03:07.343Z,11.56
2023-05-02T07:04:07.290Z,11.64
2023-05-02T07:05:07.257Z,11.53
2023-05-02T07:06:07.293Z,11.67
2023-05-02T07:07:07.254Z,11.65
2023-05-02T07:08:07.227Z,11.80
2023-05-02T07:09:07.219Z,11.71
2023-05-02T07:10:07.212Z,11.80
2023-05-02T07:11:07.197Z,11.93
2023-05-02T07:12:07.280Z,11.93
2023-05-02T07:13:07.200Z,11.85
2023-05-02T07:14:07.168Z,11.85
2023-05-02T07:15:07.218Z,11.80
2023-05-02T07:16:07.198Z,11.78
2023-05-02T07:17:07.292Z,12.05
2023-05-02T07:18:07.223Z,12.16
2023-05-02T07:19:07.139Z,12.11
2023-05-02T07:20:07.124Z,12.26
2023-05-02T07:21:07.099Z,12.33
2023-05-02T07:22:07.091Z,12.46
2023-05-02T07:23:07.176Z,12.69
2023-05-02T07:24:07.064Z,12.74
2023-05-02T07:25:07.047Z,12.67
2023-05-02T07:26:07.052Z,12.74
2023-05-02T07:27:07.045Z,12.54
2023-05-02T07:28:08.071Z,12.44
2023-05-02T07:29:07.035Z,12.33
2023-05-02T07:30:07.014Z,12.41
2023-05-02T07:31:07.015Z,12.29
2023-05-02T07:32:07.033Z,12.30
2023-05-02T07:33:07.067Z,12.42
2023-05-02T07:34:06.975Z,12.54
2023-05-02T07:35:06.956Z,12.60
2023-05-02T07:36:06.947Z,12.66
2023-05-02T07:37:06.929Z,12.56
2023-05-02T07:38:06.958Z,12.48
2023-05-02T07:39:06.923Z,12.39
2023-05-02T07:40:06.936Z,12.44
2023-05-02T07:41:06.912Z,12.54
2023-05-02T07:42:06.905Z,12.69
2023-05-02T07:43:07.899Z,12.74
2023-05-02T07:44:06.893Z,12.85
2023-05-02T07:45:06.861Z,12.95
2023-05-02T07:46:06.951Z,13.03
2023-05-02T07:47:06.872Z,12.93
2023-05-02T07:48:06.935Z,12.75
2023-05-02T07:49:06.844Z,12.69
2023-05-02T07:50:06.823Z,12.54
2023-05-02T07:51:06.832Z,12.60
2023-05-02T07:52:06.819Z,12.59
2023-05-02T07:53:06.828Z,12.49
2023-05-02T07:54:06.803Z,12.59
2023-05-02T07:55:06.777Z,12.70
2023-05-02T07:56:06.788Z,12.77
2023-05-02T07:57:06.765Z,12.75
2023-05-02T07:58:06.792Z,12.79
2023-05-02T07:59:06.746Z,12.95
2023-05-02T08:00:06.731Z,12.93
2023-05-02T08:01:06.710Z,12.88
2023-05-02T08:02:06.728Z,12.67
2023-05-02T08:03:06.848Z,12.49
2023-05-02T08:04:06.871Z,12.45
2023-05-02T08:05:06.772Z,12.59
2023-05-02T08:06:06.725Z,12.77
2023-05-02T08:07:06.667Z,12.85
2023-05-02T08:08:06.682Z,12.62
2023-05-02T08:09:06.660Z,12.46
2023-05-02T08:10:06.646Z,12.29
2023-05-02T08:11:06.637Z,12.45
2023-05-02T08:12:06.621Z,12.52
2023-05-02T08:13:06.631Z,12.29
2023-05-02T08:14:06.603Z,12.33
2023-05-02T08:15:06.821Z,12.39
2023-05-02T08:16:06.648Z,12.49
2023-05-02T08:17:06.568Z,12.57
2023-05-02T08:18:06.607Z,12.62
2023-05-02T08:19:06.546Z,12.56
2023-05-02T08:20:06.542Z,12.74
2023-05-02T08:21:06.551Z,12.69
2023-05-02T08:22:06.518Z,12.75
2023-05-02T08:23:06.544Z,12.84
2023-05-02T08:24:06.488Z,12.87
2023-05-02T08:25:06.492Z,12.88
2023-05-02T08:26:06.487Z,12.93
2023-05-02T08:27:06.464Z,12.95
2023-05-02T08:28:06.468Z,13.02
2023-05-02T08:29:06.451Z,13.04
2023-05-02T08:30:06.967Z,13.25
2023-05-02T08:31:06.549Z,13.18
2023-05-02T08:32:06.542Z,13.03
2023-05-02T08:33:06.496Z,13.06
2023-05-02T08:34:06.399Z,13.09
2023-05-02T08:35:06.367Z,13.12
2023-05-02T08:36:06.384Z,12.84
2023-05-02T08:37:06.360Z,12.66
2023-05-02T08:38:06.383Z,12.66
2023-05-02T08:39:06.345Z,12.77
2023-05-02T08:40:06.363Z,12.88
2023-05-02T08:41:06.341Z,12.93
2023-05-02T08:42:07.311Z,13.00
2023-05-02T08:43:06.355Z,13.07
2023-05-02T08:44:06.295Z,13.06
2023-05-02T08:45:06.280Z,13.04
2023-05-02T08:46:06.268Z,13.21
2023-05-02T08:47:06.337Z,13.09
2023-05-02T08:48:06.368Z,13.15
2023-05-02T08:49:06.249Z,13.09
2023-05-02T08:50:06.236Z,13.03
2023-05-02T08:51:06.223Z,13.12
2023-05-02T08:52:06.206Z,13.04
2023-05-02T08:53:06.265Z,13.00
2023-05-02T08:54:06.182Z,12.85
2023-05-02T08:55:06.181Z,12.63
2023-05-02T08:56:06.171Z,12.67
2023-05-02T08:57:06.169Z,12.57
2023-05-02T08:58:06.205Z,12.59
2023-05-02T08:59:06.132Z,12.46
2023-05-02T09:00:06.151Z,12.57
2023-05-02T09:01:06.157Z,12.54
2023-05-02T09:02:06.133Z,12.59
2023-05-02T09:03:06.190Z,12.57
2023-05-02T09:04:06.133Z,12.59
2023-05-02T09:05:06.096Z,12.62
2023-05-02T09:06:06.133Z,12.79
2023-05-02T09:07:06.065Z,12.74
2023-05-02T09:08:06.080Z,12.79
2023-05-02T09:09:06.041Z,12.89
2023-05-02T09:10:06.029Z,12.92
2023-05-02T09:11:06.025Z,12.96
2023-05-02T09:12:06.020Z,12.92
2023-05-02T09:13:06.024Z,12.84
2023-05-02T09:14:05.993Z,12.87
2023-05-02T09:15:05.973Z,12.81
2023-05-02T09:16:06.000Z,12.70
2023-05-02T09:17:05.998Z,12.51
2023-05-02T09:18:06.073Z,12.41
2023-05-02T09:19:05.944Z,12.26
2023-05-02T09:20:05.938Z,12.33
2023-05-02T09:21:05.919Z,12.33
2023-05-02T09:22:05.912Z,12.19
2023-05-02T09:23:05.920Z,11.97
2023-05-02T09:24:05.901Z,11.87
2023-05-02T09:25:05.896Z,11.96
2023-05-02T09:26:05.877Z,12.04
2023-05-02T09:27:05.874Z,12.04
2023-05-02T09:28:05.873Z,12.09
2023-05-02T09:29:05.838Z,12.16
2023-05-02T09:30:05.848Z,12.08
2023-05-02T09:31:05.865Z,12.08
2023-05-02T09:32:05.905Z,12.11
2023-05-02T09:33:05.857Z,11.94
2023-05-02T09:34:05.823Z,11.96
2023-05-02T09:35:05.785Z,11.99
2023-05-02T09:36:05.768Z,11.89
2023-05-02T09:37:05.853Z,11.86
2023-05-02T09:38:05.757Z,11.93
2023-05-02T09:39:05.786Z,11.90
2023-05-02T09:40:05.746Z,12.06
2023-05-02T09:41:05.789Z,12.05
2023-05-02T09:42:05.722Z,12.29
2023-05-02T09:43:05.707Z,12.33
2023-05-02T09:44:05.741Z,12.38
2023-05-02T09:45:05.691Z,12.34
2023-05-02T09:46:05.750Z,12.34
2023-05-02T09:47:05.670Z,12.31
2023-05-02T09:48:05.676Z,12.19
2023-05-02T09:49:05.686Z,12.39
2023-05-02T09:50:05.619Z,12.23
2023-05-02T09:51:05.662Z,12.34
2023-05-02T09:52:05.600Z,12.37
2023-05-02T09:53:05.634Z,12.33
2023-05-02T09:54:05.595Z,12.37
2023-05-02T09:55:05.581Z,12.21
2023-05-02T09:56:05.582Z,12.12
2023-05-02T09:57:05.556Z,12.02
2023-05-02T09:58:05.588Z,12.24
2023-05-02T09:59:05.546Z,12.38
2023-05-02T10:00:05.529Z,12.37
2023-05-02T10:01:05.561Z,12.38
2023-05-02T10:02:05.526Z,12.56
2023-05-02T10:03:05.561Z,12.57
2023-05-02T10:04:05.564Z,12.52
2023-05-02T10:05:05.484Z,12.60
2023-05-02T10:06:05.640Z,12.78
2023-05-02T10:07:05.446Z,12.71
2023-05-02T10:08:05.470Z,12.64
2023-05-02T10:09:05.459Z,12.74
2023-05-02T10:10:05.442Z,12.99
2023-05-02T10:11:05.489Z,12.96
2023-05-02T10:12:05.418Z,12.82
2023-05-02T10:13:05.456Z,12.82
2023-05-02T10:14:05.389Z,12.87
2023-05-02T10:15:07.301Z,12.87
2023-05-02T10:16:37.782Z,12.81
2023-05-02T10:17:05.372Z,12.88
2023-05-02T10:18:05.414Z,13.18
2023-05-02T10:19:05.337Z,13.43
2023-05-02T10:20:05.332Z,13.41
2023-05-02T10:21:05.313Z,13.33
2023-05-02T10:22:05.312Z,13.17
2023-05-02T10:23:05.313Z,12.78
2023-05-02T10:24:05.286Z,12.54
2023-05-02T10:25:05.432Z,12.39
2023-05-02T10:26:05.273Z,12.45
2023-05-02T10:27:05.261Z,12.31
2023-05-02T10:28:06.162Z,12.26
2023-05-02T10:29:05.238Z,12.16
2023-05-02T10:30:05.238Z,11.93
2023-05-02T10:31:05.232Z,11.82
2023-05-02T10:32:05.249Z,11.93
2023-05-02T10:33:05.275Z,11.93
2023-05-02T10:34:05.186Z,11.90
2023-05-02T10:35:05.225Z,11.94
2023-05-02T10:36:05.169Z,11.87
2023-05-02T10:37:05.158Z,12.05
2023-05-02T10:38:05.173Z,12.05
2023-05-02T10:39:05.150Z,11.96
2023-05-02T10:40:05.164Z,12.01
2023-05-02T10:41:05.114Z,12.12
2023-05-02T10:42:05.139Z,12.20
2023-05-02T10:43:05.098Z,12.15
2023-05-02T10:44:05.089Z,12.24
2023-05-02T10:45:05.184Z,12.39
2023-05-02T10:46:05.068Z,12.49
2023-05-02T10:47:05.117Z,12.45
2023-05-02T10:48:05.138Z,12.38
2023-05-02T10:49:05.057Z,12.31
2023-05-02T10:50:05.048Z,12.33
2023-05-02T10:51:05.029Z,12.33
2023-05-02T10:52:05.015Z,12.42
2023-05-02T10:53:05.022Z,12.44
2023-05-02T10:54:04.986Z,12.59
2023-05-02T10:55:04.985Z,12.54
2023-05-02T10:56:04.980Z,12.59
2023-05-02T10:57:04.964Z,12.64
2023-05-02T10:58:05.010Z,12.69
2023-05-02T10:59:04.940Z,12.56
2023-05-02T11:00:04.939Z,12.45
2023-05-02T11:01:04.997Z,12.54
2023-05-02T11:02:07.101Z,12.64
2023-05-02T11:03:06.042Z,12.77
2023-05-02T11:04:04.907Z,12.77
2023-05-02T11:05:05.219Z,12.81
2023-05-02T11:06:04.907Z,12.84
2023-05-02T11:07:04.877Z,12.59
2023-05-02T11:08:04.977Z,12.34
2023-05-02T11:09:04.846Z,12.41
2023-05-02T11:10:04.834Z,12.41
2023-05-02T11:11:04.825Z,12.49
2023-05-02T11:12:04.886Z,12.49
2023-05-02T11:13:04.824Z,12.27
2023-05-02T11:14:04.798Z,12.16
2023-05-02T11:15:04.801Z,12.02
2023-05-02T11:16:04.805Z,11.85
2023-05-02T11:17:04.840Z,11.70
2023-05-02T11:18:04.850Z,11.72
2023-05-02T11:19:04.751Z,11.62
2023-05-02T11:20:04.784Z,11.65
2023-05-02T11:21:04.799Z,11.61
2023-05-02T11:22:04.729Z,11.49
2023-05-02T11:23:04.730Z,11.32
2023-05-02T11:24:04.710Z,11.10
2023-05-02T11:25:04.692Z,10.92
2023-05-02T11:26:04.683Z,10.86
2023-05-02T11:27:04.673Z,10.86
2023-05-02T11:28:04.693Z,10.81
2023-05-02T11:29:04.646Z,10.78
2023-05-02T11:30:04.655Z,10.73
2023-05-02T11:31:04.635Z,10.71
2023-05-02T11:32:04.704Z,10.76
2023-05-02T11:33:04.692Z,10.77
2023-05-02T11:34:04.650Z,10.73
2023-05-02T11:35:04.610Z,10.66
2023-05-02T11:36:04.597Z,10.65
2023-05-02T11:37:04.573Z,10.51
2023-05-02T11:38:04.620Z,10.24
2023-05-02T11:39:04.554Z,10.22
2023-05-02T11:40:04.548Z,10.37
2023-05-02T11:41:04.671Z,10.19
2023-05-02T11:42:04.544Z,9.93
2023-05-02T11:43:04.537Z,9.86
2023-05-02T11:44:04.502Z,9.91
2023-05-02T11:45:04.740Z,9.85
2023-05-02T11:46:04.542Z,9.93
2023-05-02T11:47:04.493Z,9.82
2023-05-02T11:48:04.727Z,9.78
2023-05-02T11:49:06.282Z,9.81
2023-05-02T11:50:04.465Z,9.70
2023-05-02T11:51:04.437Z,9.67
2023-05-02T11:52:04.423Z,9.71
2023-05-02T11:53:04.433Z,9.81
2023-05-02T11:54:04.404Z,9.89
2023-05-02T11:55:04.515Z,9.89
2023-05-02T11:56:04.398Z,9.96
2023-05-02T11:57:04.375Z,9.96
2023-05-02T11:58:04.387Z,9.93
2023-05-02T11:59:04.375Z,9.94
2023-05-02T12:00:04.339Z,10.06
2023-05-02T12:01:04.334Z,10.09
2023-05-02T12:02:04.394Z,10.06
2023-05-02T12:03:05.427Z,10.10
2023-05-02T12:04:04.316Z,10.18
2023-05-02T12:05:04.819Z,10.00
2023-05-02T12:06:04.511Z,9.94
2023-05-02T12:07:04.344Z,10.03
2023-05-02T12:08:04.274Z,10.09
2023-05-02T12:09:04.268Z,10.09
2023-05-02T12:10:04.255Z,10.22
2023-05-02T12:11:04.249Z,10.10
2023-05-02T12:12:04.218Z,10.15
2023-05-02T12:13:04.217Z,10.21
2023-05-02T12:14:04.197Z,10.21
2023-05-02T12:15:04.379Z,10.19
2023-05-02T12:16:04.239Z,10.21
2023-05-02T12:17:04.210Z,10.37
2023-05-02T12:18:04.256Z,10.59
2023-05-02T12:19:04.142Z,10.70
2023-05-02T12:20:04.149Z,10.74
2023-05-02T12:21:04.170Z,10.81
2023-05-02T12:22:04.125Z,10.86
2023-05-02T12:23:04.118Z,11.02
2023-05-02T12:24:04.120Z,11.13
2023-05-02T12:25:04.516Z,11.25
2023-05-02T12:26:04.118Z,11.14
2023-05-02T12:27:04.075Z,11.02
2023-05-02T12:28:04.073Z,10.88
2023-05-02T12:29:04.048Z,10.77
2023-05-02T12:30:04.412Z,10.99
2023-05-02T12:31:04.102Z,11.11
2023-05-02T12:32:04.030Z,11.06
2023-05-02T12:33:04.038Z,11.06
2023-05-02T12:34:04.010Z,10.94
2023-05-02T12:35:04.083Z,10.98
2023-05-02T12:36:04.041Z,10.86
2023-05-02T12:37:03.980Z,10.91
2023-05-02T12:38:03.981Z,10.94
2023-05-02T12:39:03.946Z,10.96
2023-05-02T12:40:04.160Z,10.91
2023-05-02T12:41:03.927Z,10.98
2023-05-02T12:42:03.917Z,10.98
2023-05-02T12:43:03.953Z,11.19
2023-05-02T12:44:03.963Z,11.13
2023-05-02T12:45:03.885Z,11.20
2023-05-02T12:46:03.912Z,11.25
2023-05-02T12:47:03.961Z,11.21
2023-05-02T12:48:03.919Z,11.16
2023-05-02T12:49:03.851Z,11.25
2023-05-02T12:50:04.181Z,11.24
2023-05-02T12:51:03.852Z,11.03
2023-05-02T12:52:03.821Z,10.96
2023-05-02T12:53:03.831Z,11.03